Papanduva, Brazil
Current Conditions -  °F | °C
As of 11:00 PM on Thursday 30 Oct 2014 (Local Time) from SBJV Reporting Station
Scattered Clouds Scattered Clouds  
Wind Chill: 75°   Ceiling: Unl
Heat Index: 75°   Visibility: 6mi
Dew Point: 72°   Wind: 2mph
Humidity: 89%   Direction: 340°NNW
Pressure: 29.88"   Gusts: NA
Location:  26.41°S, 50.14°W
Report Text: SBJV 310100Z 34002KT 9999 SCT040 24/22 Q1012
Loading
Personal Weather Stations






























Interactive Weather Map
Tropical Storm Tracking
New forecast layout! Learn more

10-Day Weather Forecast

Advertisements
Track Severe Weather on mobile